sensor_id;sensor_type;location;lat;lon;timestamp;temperature;humidity
12632;DHT22;6381;45.748;12.106;2023-09-19T00:00:57;21.10;99.90
12632;DHT22;6381;45.748;12.106;2023-09-19T00:03:30;21.10;99.90
12632;DHT22;6381;45.748;12.106;2023-09-19T00:06:00;21.10;99.90
12632;DHT22;6381;45.748;12.106;2023-09-19T00:08:30;21.10;99.90
12632;DHT22;6381;45.748;12.106;2023-09-19T00:11:02;21.00;99.90
12632;DHT22;6381;45.748;12.106;2023-09-19T00:13:34;21.00;99.90
12632;DHT22;6381;45.748;12.106;2023-09-19T00:16:09;21.00;99.90
12632;DHT22;6381;45.748;12.106;2023-09-19T00:18:40;21.00;99.90
12632;DHT22;6381;45.748;12.106;2023-09-19T00:21:10;20.90;99.90
12632;DHT22;6381;45.748;12.106;2023-09-19T00:23:40;20.70;99.90
12632;DHT22;6381;45.748;12.106;2023-09-19T00:26:12;20.60;99.90
12632;DHT22;6381;45.748;12.106;2023-09-19T00:28:45;20.90;99.90
12632;DHT22;6381;45.748;12.106;2023-09-19T00:31:15;20.90;99.90
12632;DHT22;6381;45.748;12.106;2023-09-19T00:33:46;20.90;99.90
12632;DHT22;6381;45.748;12.106;2023-09-19T00:36:16;20.90;99.90
12632;DHT22;6381;45.748;12.106;2023-09-19T00:38:47;20.80;99.90
12632;DHT22;6381;45.748;12.106;2023-09-19T00:41:19;20.70;99.90
12632;DHT22;6381;45.748;12.106;2023-09-19T00:43:48;20.80;99.90
12632;DHT22;6381;45.748;12.106;2023-09-19T00:46:19;20.80;99.90
12632;DHT22;6381;45.748;12.106;2023-09-19T00:48:49;20.80;99.90
12632;DHT22;6381;45.748;12.106;2023-09-19T00:51:20;20.80;99.90
12632;DHT22;6381;45.748;12.106;2023-09-19T00:53:51;20.80;99.90
12632;DHT22;6381;45.748;12.106;2023-09-19T00:56:23;20.80;99.90
12632;DHT22;6381;45.748;12.106;2023-09-19T00:58:53;20.80;99.90
12632;DHT22;6381;45.748;12.106;2023-09-19T01:01:23;20.90;99.90
12632;DHT22;6381;45.748;12.106;2023-09-19T01:03:53;20.80;99.90
12632;DHT22;6381;45.748;12.106;2023-09-19T01:06:24;20.70;99.90
12632;DHT22;6381;45.748;12.106;2023-09-19T01:08:54;20.60;99.90
12632;DHT22;6381;45.748;12.106;2023-09-19T01:11:33;20.60;99.90
12632;DHT22;6381;45.748;12.106;2023-09-19T01:14:18;20.60;99.90
12632;DHT22;6381;45.748;12.106;2023-09-19T01:16:56;20.70;99.90
12632;DHT22;6381;45.748;12.106;2023-09-19T01:20:18;20.70;99.90
12632;DHT22;6381;45.748;12.106;2023-09-19T01:23:00;20.70;99.90
12632;DHT22;6381;45.748;12.106;2023-09-19T01:25:50;20.80;99.90
12632;DHT22;6381;45.748;12.106;2023-09-19T01:28:59;20.80;99.90
12632;DHT22;6381;45.748;12.106;2023-09-19T01:31:34;20.60;99.90
12632;DHT22;6381;45.748;12.106;2023-09-19T01:34:07;20.70;99.90
12632;DHT22;6381;45.748;12.106;2023-09-19T01:36:38;20.60;99.90
12632;DHT22;6381;45.748;12.106;2023-09-19T01:39:10;20.60;99.90
12632;DHT22;6381;45.748;12.106;2023-09-19T01:41:58;20.60;99.90
12632;DHT22;6381;45.748;12.106;2023-09-19T01:44:39;20.70;99.90
12632;DHT22;6381;45.748;12.106;2023-09-19T01:47:19;20.70;99.90
12632;DHT22;6381;45.748;12.106;2023-09-19T01:49:58;20.70;99.90
12632;DHT22;6381;45.748;12.106;2023-09-19T01:52:33;20.50;99.90
12632;DHT22;6381;45.748;12.106;2023-09-19T01:55:09;20.60;99.90
12632;DHT22;6381;45.748;12.106;2023-09-19T01:57:46;20.40;99.90
12632;DHT22;6381;45.748;12.106;2023-09-19T02:00:18;20.40;99.90
12632;DHT22;6381;45.748;12.106;2023-09-19T02:02:51;20.50;99.90
12632;DHT22;6381;45.748;12.106;2023-09-19T02:05:24;20.60;99.90
12632;DHT22;6381;45.748;12.106;2023-09-19T02:07:55;20.40;99.90
12632;DHT22;6381;45.748;12.106;2023-09-19T02:10:27;20.40;99.90
12632;DHT22;6381;45.748;12.106;2023-09-19T02:12:58;20.50;99.90
12632;DHT22;6381;45.748;12.106;2023-09-19T02:15:28;20.50;99.90
12632;DHT22;6381;45.748;12.106;2023-09-19T02:18:04;20.50;99.90
12632;DHT22;6381;45.748;12.106;2023-09-19T02:20:35;20.30;99.90
12632;DHT22;6381;45.748;12.106;2023-09-19T02:23:05;20.40;99.90
12632;DHT22;6381;45.748;12.106;2023-09-19T02:25:36;20.20;99.90
12632;DHT22;6381;45.748;12.106;2023-09-19T02:28:07;20.10;99.90
12632;DHT22;6381;45.748;12.106;2023-09-19T02:30:37;20.30;99.90
12632;DHT22;6381;45.748;12.106;2023-09-19T02:33:08;20.20;99.90
12632;DHT22;6381;45.748;12.106;2023-09-19T02:35:37;20.30;99.90
12632;DHT22;6381;45.748;12.106;2023-09-19T02:38:07;20.30;99.90
12632;DHT22;6381;45.748;12.106;2023-09-19T02:40:39;20.30;99.90
12632;DHT22;6381;45.748;12.106;2023-09-19T02:43:10;20.20;99.90
12632;DHT22;6381;45.748;12.106;2023-09-19T02:45:40;20.20;99.90
12632;DHT22;6381;45.748;12.106;2023-09-19T02:48:12;20.10;99.90
12632;DHT22;6381;45.748;12.106;2023-09-19T02:50:43;20.10;99.90
12632;DHT22;6381;45.748;12.106;2023-09-19T02:53:14;20.40;99.90
12632;DHT22;6381;45.748;12.106;2023-09-19T02:55:44;20.20;99.90
12632;DHT22;6381;45.748;12.106;2023-09-19T02:58:14;20.20;99.90
12632;DHT22;6381;45.748;12.106;2023-09-19T03:00:44;20.20;99.90
12632;DHT22;6381;45.748;12.106;2023-09-19T03:03:18;20.40;99.90
12632;DHT22;6381;45.748;12.106;2023-09-19T03:05:48;20.30;99.90
12632;DHT22;6381;45.748;12.106;2023-09-19T03:08:22;20.20;99.90
12632;DHT22;6381;45.748;12.106;2023-09-19T03:10:53;20.30;99.90
12632;DHT22;6381;45.748;12.106;2023-09-19T03:13:23;20.00;99.90
12632;DHT22;6381;45.748;12.106;2023-09-19T03:15:54;20.10;99.90
12632;DHT22;6381;45.748;12.106;2023-09-19T03:18:29;19.90;99.90
12632;DHT22;6381;45.748;12.106;2023-09-19T03:21:00;19.90;99.90
12632;DHT22;6381;45.748;12.106;2023-09-19T03:23:29;19.80;99.90
12632;DHT22;6381;45.748;12.106;2023-09-19T03:25:59;19.70;99.90
12632;DHT22;6381;45.748;12.106;2023-09-19T03:28:29;19.80;99.90
12632;DHT22;6381;45.748;12.106;2023-09-19T03:31:00;19.70;99.90
12632;DHT22;6381;45.748;12.106;2023-09-19T03:33:34;19.70;99.90
12632;DHT22;6381;45.748;12.106;2023-09-19T03:36:05;19.80;99.90
12632;DHT22;6381;45.748;12.106;2023-09-19T03:38:35;19.90;99.90
12632;DHT22;6381;45.748;12.106;2023-09-19T03:41:05;19.60;99.90
12632;DHT22;6381;45.748;12.106;2023-09-19T03:43:36;19.60;99.90
12632;DHT22;6381;45.748;12.106;2023-09-19T03:46:06;19.80;99.90
12632;DHT22;6381;45.748;12.106;2023-09-19T03:48:40;19.70;99.90
12632;DHT22;6381;45.748;12.106;2023-09-19T03:51:11;19.60;99.90
12632;DHT22;6381;45.748;12.106;2023-09-19T03:53:41;19.80;99.90
12632;DHT22;6381;45.748;12.106;2023-09-19T03:56:11;19.90;99.90
12632;DHT22;6381;45.748;12.106;2023-09-19T03:58:41;19.90;99.90
12632;DHT22;6381;45.748;12.106;2023-09-19T04:01:10;19.80;99.90
12632;DHT22;6381;45.748;12.106;2023-09-19T04:03:42;19.80;99.90
12632;DHT22;6381;45.748;12.106;2023-09-19T04:06:17;20.00;99.90
12632;DHT22;6381;45.748;12.106;2023-09-19T04:08:46;19.80;99.90
12632;DHT22;6381;45.748;12.106;2023-09-19T04:11:17;20.00;99.90
12632;DHT22;6381;45.748;12.106;2023-09-19T04:13:47;19.90;99.90
12632;DHT22;6381;45.748;12.106;2023-09-19T04:16:17;19.90;99.90
12632;DHT22;6381;45.748;12.106;2023-09-19T04:18:49;19.70;99.90
12632;DHT22;6381;45.748;12.106;2023-09-19T04:21:19;19.90;99.90
12632;DHT22;6381;45.748;12.106;2023-09-19T04:23:49;19.60;99.90
12632;DHT22;6381;45.748;12.106;2023-09-19T04:26:19;19.80;99.90
12632;DHT22;6381;45.748;12.106;2023-09-19T04:28:50;19.90;99.90
12632;DHT22;6381;45.748;12.106;2023-09-19T04:31:20;19.70;99.90
12632;DHT22;6381;45.748;12.106;2023-09-19T04:33:52;19.90;99.90
12632;DHT22;6381;45.748;12.106;2023-09-19T04:36:22;19.70;99.90
12632;DHT22;6381;45.748;12.106;2023-09-19T04:39:02;19.70;99.90
12632;DHT22;6381;45.748;12.106;2023-09-19T04:41:35;19.50;99.90
12632;DHT22;6381;45.748;12.106;2023-09-19T04:44:06;19.60;99.90
12632;DHT22;6381;45.748;12.106;2023-09-19T04:46:36;19.60;99.90
12632;DHT22;6381;45.748;12.106;2023-09-19T04:49:08;19.70;99.90
12632;DHT22;6381;45.748;12.106;2023-09-19T04:51:38;19.80;99.90
12632;DHT22;6381;45.748;12.106;2023-09-19T04:54:08;19.70;99.90
12632;DHT22;6381;45.748;12.106;2023-09-19T04:56:38;19.80;99.90
12632;DHT22;6381;45.748;12.106;2023-09-19T04:59:09;19.80;99.90
12632;DHT22;6381;45.748;12.106;2023-09-19T05:01:40;20.10;99.90
12632;DHT22;6381;45.748;12.106;2023-09-19T05:04:11;19.90;99.90
12632;DHT22;6381;45.748;12.106;2023-09-19T05:06:41;19.90;99.90
12632;DHT22;6381;45.748;12.106;2023-09-19T05:09:13;20.00;99.90
12632;DHT22;6381;45.748;12.106;2023-09-19T05:11:44;19.90;99.90
12632;DHT22;6381;45.748;12.106;2023-09-19T05:14:14;19.90;99.90
12632;DHT22;6381;45.748;12.106;2023-09-19T05:16:44;19.90;99.90
12632;DHT22;6381;45.748;12.106;2023-09-19T05:19:16;20.00;99.90
12632;DHT22;6381;45.748;12.106;2023-09-19T05:21:45;20.00;99.90
12632;DHT22;6381;45.748;12.106;2023-09-19T05:24:15;20.00;99.90
12632;DHT22;6381;45.748;12.106;2023-09-19T05:26:45;20.00;99.90
12632;DHT22;6381;45.748;12.106;2023-09-19T05:29:15;20.00;99.90
12632;DHT22;6381;45.748;12.106;2023-09-19T05:31:45;20.10;99.90
12632;DHT22;6381;45.748;12.106;2023-09-19T05:34:16;20.10;99.90
12632;DHT22;6381;45.748;12.106;2023-09-19T05:36:49;20.30;99.90
12632;DHT22;6381;45.748;12.106;2023-09-19T05:39:20;20.40;99.90
12632;DHT22;6381;45.748;12.106;2023-09-19T05:41:50;20.30;99.90
12632;DHT22;6381;45.748;12.106;2023-09-19T05:44:21;20.30;99.90
12632;DHT22;6381;45.748;12.106;2023-09-19T05:46:51;20.40;99.90
12632;DHT22;6381;45.748;12.106;2023-09-19T05:49:23;20.60;99.90
12632;DHT22;6381;45.748;12.106;2023-09-19T05:51:53;20.70;99.90
12632;DHT22;6381;45.748;12.106;2023-09-19T05:54:27;20.70;99.90
12632;DHT22;6381;45.748;12.106;2023-09-19T05:56:57;20.70;99.90
12632;DHT22;6381;45.748;12.106;2023-09-19T05:59:27;20.70;99.90
12632;DHT22;6381;45.748;12.106;2023-09-19T06:01:57;20.80;99.90
12632;DHT22;6381;45.748;12.106;2023-09-19T06:04:29;20.90;99.90
12632;DHT22;6381;45.748;12.106;2023-09-19T06:06:59;21.00;99.90
12632;DHT22;6381;45.748;12.106;2023-09-19T06:09:33;21.10;99.90
12632;DHT22;6381;45.748;12.106;2023-09-19T06:12:04;21.20;99.90
12632;DHT22;6381;45.748;12.106;2023-09-19T06:14:34;21.20;99.90
12632;DHT22;6381;45.748;12.106;2023-09-19T06:17:04;21.10;99.90
12632;DHT22;6381;45.748;12.106;2023-09-19T06:19:36;21.10;99.90
12632;DHT22;6381;45.748;12.106;2023-09-19T06:22:06;21.30;99.90
12632;DHT22;6381;45.748;12.106;2023-09-19T06:24:36;21.40;99.90
12632;DHT22;6381;45.748;12.106;2023-09-19T06:27:06;21.40;99.90
12632;DHT22;6381;45.748;12.106;2023-09-19T06:29:37;21.50;99.90
12632;DHT22;6381;45.748;12.106;2023-09-19T06:32:07;21.60;99.90
12632;DHT22;6381;45.748;12.106;2023-09-19T06:34:40;21.50;99.90
12632;DHT22;6381;45.748;12.106;2023-09-19T06:37:11;21.60;99.90
12632;DHT22;6381;45.748;12.106;2023-09-19T06:39:41;21.70;99.90
12632;DHT22;6381;45.748;12.106;2023-09-19T06:42:11;21.70;99.90
12632;DHT22;6381;45.748;12.106;2023-09-19T06:44:41;21.80;99.90
12632;DHT22;6381;45.748;12.106;2023-09-19T06:47:11;21.70;99.90
12632;DHT22;6381;45.748;12.106;2023-09-19T06:49:43;22.00;99.90
12632;DHT22;6381;45.748;12.106;2023-09-19T06:52:13;21.90;99.90
12632;DHT22;6381;45.748;12.106;2023-09-19T06:54:43;22.00;99.90
12632;DHT22;6381;45.748;12.106;2023-09-19T06:57:13;22.00;99.90
12632;DHT22;6381;45.748;12.106;2023-09-19T06:59:43;22.10;99.90
12632;DHT22;6381;45.748;12.106;2023-09-19T07:02:13;22.10;99.90
12632;DHT22;6381;45.748;12.106;2023-09-19T07:04:45;22.10;99.90
12632;DHT22;6381;45.748;12.106;2023-09-19T07:07:15;22.20;99.90
12632;DHT22;6381;45.748;12.106;2023-09-19T07:09:45;22.20;99.90
12632;DHT22;6381;45.748;12.106;2023-09-19T07:12:16;22.10;99.90
12632;DHT22;6381;45.748;12.106;2023-09-19T07:14:47;22.30;99.90
12632;DHT22;6381;45.748;12.106;2023-09-19T07:17:17;22.50;99.90
12632;DHT22;6381;45.748;12.106;2023-09-19T07:19:49;22.40;99.90
12632;DHT22;6381;45.748;12.106;2023-09-19T07:22:19;22.50;99.90
12632;DHT22;6381;45.748;12.106;2023-09-19T07:24:50;22.70;99.90
12632;DHT22;6381;45.748;12.106;2023-09-19T07:27:20;22.60;99.90
12632;DHT22;6381;45.748;12.106;2023-09-19T07:29:50;22.60;99.90
12632;DHT22;6381;45.748;12.106;2023-09-19T07:32:21;22.70;99.90
12632;DHT22;6381;45.748;12.106;2023-09-19T07:34:53;22.80;99.90
12632;DHT22;6381;45.748;12.106;2023-09-19T07:37:23;22.80;99.90
12632;DHT22;6381;45.748;12.106;2023-09-19T07:39:54;22.90;99.90
12632;DHT22;6381;45.748;12.106;2023-09-19T07:42:24;23.00;99.90
12632;DHT22;6381;45.748;12.106;2023-09-19T07:44:54;23.10;99.90
12632;DHT22;6381;45.748;12.106;2023-09-19T07:47:24;23.20;99.90
12632;DHT22;6381;45.748;12.106;2023-09-19T07:49:55;23.30;99.90
12632;DHT22;6381;45.748;12.106;2023-09-19T07:52:25;23.20;99.90
12632;DHT22;6381;45.748;12.106;2023-09-19T07:54:56;23.20;99.90
12632;DHT22;6381;45.748;12.106;2023-09-19T07:57:25;23.30;99.90
12632;DHT22;6381;45.748;12.106;2023-09-19T07:59:56;23.50;99.90
12632;DHT22;6381;45.748;12.106;2023-09-19T08:02:26;23.60;99.90
12632;DHT22;6381;45.748;12.106;2023-09-19T08:04:57;23.50;99.90
12632;DHT22;6381;45.748;12.106;2023-09-19T08:07:29;23.40;99.90
12632;DHT22;6381;45.748;12.106;2023-09-19T08:09:59;23.50;99.90
12632;DHT22;6381;45.748;12.106;2023-09-19T08:12:29;23.80;99.90
12632;DHT22;6381;45.748;12.106;2023-09-19T08:15:00;23.80;99.90
12632;DHT22;6381;45.748;12.106;2023-09-19T08:17:34;23.70;99.90
12632;DHT22;6381;45.748;12.106;2023-09-19T08:20:07;23.90;99.90
12632;DHT22;6381;45.748;12.106;2023-09-19T08:22:46;23.90;99.90
12632;DHT22;6381;45.748;12.106;2023-09-19T08:25:17;24.10;99.90
12632;DHT22;6381;45.748;12.106;2023-09-19T08:27:48;23.90;99.90
12632;DHT22;6381;45.748;12.106;2023-09-19T08:30:19;23.90;99.90
12632;DHT22;6381;45.748;12.106;2023-09-19T08:32:57;23.80;99.90
12632;DHT22;6381;45.748;12.106;2023-09-19T08:35:29;24.00;99.90
12632;DHT22;6381;45.748;12.106;2023-09-19T08:37:59;24.30;99.90
12632;DHT22;6381;45.748;12.106;2023-09-19T08:40:34;24.40;99.90
12632;DHT22;6381;45.748;12.106;2023-09-19T08:43:08;24.60;99.90
12632;DHT22;6381;45.748;12.106;2023-09-19T08:45:40;24.60;99.90
12632;DHT22;6381;45.748;12.106;2023-09-19T08:48:22;24.60;99.90
12632;DHT22;6381;45.748;12.106;2023-09-19T08:50:56;24.60;99.90
12632;DHT22;6381;45.748;12.106;2023-09-19T08:53:30;24.70;99.90
12632;DHT22;6381;45.748;12.106;2023-09-19T08:56:01;24.60;99.90
12632;DHT22;6381;45.748;12.106;2023-09-19T08:58:41;24.60;99.90
12632;DHT22;6381;45.748;12.106;2023-09-19T09:01:16;24.80;99.90
12632;DHT22;6381;45.748;12.106;2023-09-19T09:03:56;24.90;99.90
12632;DHT22;6381;45.748;12.106;2023-09-19T09:06:27;25.10;99.90
12632;DHT22;6381;45.748;12.106;2023-09-19T09:09:01;25.00;99.90
12632;DHT22;6381;45.748;12.106;2023-09-19T09:11:33;25.00;99.90
12632;DHT22;6381;45.748;12.106;2023-09-19T09:14:03;24.90;99.90
12632;DHT22;6381;45.748;12.106;2023-09-19T09:16:35;25.00;99.90
12632;DHT22;6381;45.748;12.106;2023-09-19T09:19:06;25.30;99.90
12632;DHT22;6381;45.748;12.106;2023-09-19T09:21:37;25.40;99.90
12632;DHT22;6381;45.748;12.106;2023-09-19T09:24:26;25.40;99.90
12632;DHT22;6381;45.748;12.106;2023-09-19T09:26:56;25.70;99.90
12632;DHT22;6381;45.748;12.106;2023-09-19T09:29:42;25.70;99.90
12632;DHT22;6381;45.748;12.106;2023-09-19T09:32:21;25.70;99.90
12632;DHT22;6381;45.748;12.106;2023-09-19T09:34:52;25.80;99.90
12632;DHT22;6381;45.748;12.106;2023-09-19T09:37:29;26.00;99.90
12632;DHT22;6381;45.748;12.106;2023-09-19T09:40:01;26.20;99.90
12632;DHT22;6381;45.748;12.106;2023-09-19T09:42:47;26.30;99.90
12632;DHT22;6381;45.748;12.106;2023-09-19T09:45:21;26.30;99.90
12632;DHT22;6381;45.748;12.106;2023-09-19T09:47:57;26.40;99.90
12632;DHT22;6381;45.748;12.106;2023-09-19T09:50:30;26.70;99.90
12632;DHT22;6381;45.748;12.106;2023-09-19T09:53:23;26.70;99.90
12632;DHT22;6381;45.748;12.106;2023-09-19T09:56:01;26.70;99.90
12632;DHT22;6381;45.748;12.106;2023-09-19T09:58:34;26.80;99.90
12632;DHT22;6381;45.748;12.106;2023-09-19T10:01:05;26.90;99.90
12632;DHT22;6381;45.748;12.106;2023-09-19T10:03:39;26.70;99.90
12632;DHT22;6381;45.748;12.106;2023-09-19T10:06:13;26.60;99.90
12632;DHT22;6381;45.748;12.106;2023-09-19T10:09:01;26.80;99.90
12632;DHT22;6381;45.748;12.106;2023-09-19T10:11:42;27.10;99.90
12632;DHT22;6381;45.748;12.106;2023-09-19T10:14:14;27.10;99.90
12632;DHT22;6381;45.748;12.106;2023-09-19T10:16:46;27.30;99.90
12632;DHT22;6381;45.748;12.106;2023-09-19T10:19:21;27.40;99.90
12632;DHT22;6381;45.748;12.106;2023-09-19T10:21:54;27.40;99.80
12632;DHT22;6381;45.748;12.106;2023-09-19T10:24:27;27.60;99.70
12632;DHT22;6381;45.748;12.106;2023-09-19T10:27:00;27.40;99.90
12632;DHT22;6381;45.748;12.106;2023-09-19T10:29:32;27.70;99.90
12632;DHT22;6381;45.748;12.106;2023-09-19T10:32:05;27.20;97.90
12632;DHT22;6381;45.748;12.106;2023-09-19T10:34:37;27.70;99.90
12632;DHT22;6381;45.748;12.106;2023-09-19T10:37:13;27.70;98.70
12632;DHT22;6381;45.748;12.106;2023-09-19T10:39:47;27.90;97.70
12632;DHT22;6381;45.748;12.106;2023-09-19T10:42:19;27.50;96.10
12632;DHT22;6381;45.748;12.106;2023-09-19T10:44:51;27.70;98.70
12632;DHT22;6381;45.748;12.106;2023-09-19T10:47:23;27.60;98.50
12632;DHT22;6381;45.748;12.106;2023-09-19T10:49:53;27.80;98.20
12632;DHT22;6381;45.748;12.106;2023-09-19T10:52:25;28.10;99.30
12632;DHT22;6381;45.748;12.106;2023-09-19T10:54:59;28.40;98.50
12632;DHT22;6381;45.748;12.106;2023-09-19T10:57:30;28.70;97.70
12632;DHT22;6381;45.748;12.106;2023-09-19T11:00:04;29.00;93.60
12632;DHT22;6381;45.748;12.106;2023-09-19T11:03:18;29.30;93.60
12632;DHT22;6381;45.748;12.106;2023-09-19T11:06:17;29.50;91.90
12632;DHT22;6381;45.748;12.106;2023-09-19T11:09:00;29.40;92.10
12632;DHT22;6381;45.748;12.106;2023-09-19T11:11:49;29.70;92.40
12632;DHT22;6381;45.748;12.106;2023-09-19T11:14:40;29.90;92.70
12632;DHT22;6381;45.748;12.106;2023-09-19T11:17:32;29.90;91.60
12632;DHT22;6381;45.748;12.106;2023-09-19T11:20:20;29.60;91.90
12632;DHT22;6381;45.748;12.106;2023-09-19T11:23:21;29.80;90.80
12632;DHT22;6381;45.748;12.106;2023-09-19T11:25:55;29.20;91.10
12632;DHT22;6381;45.748;12.106;2023-09-19T11:28:31;28.40;91.20
12632;DHT22;6381;45.748;12.106;2023-09-19T11:34:45;29.50;87.10
12632;DHT22;6381;45.748;12.106;2023-09-19T11:40:47;30.50;85.10
12632;DHT22;6381;45.748;12.106;2023-09-19T11:43:33;30.70;81.50
12632;DHT22;6381;45.748;12.106;2023-09-19T11:46:08;30.70;80.90
12632;DHT22;6381;45.748;12.106;2023-09-19T11:48:39;31.20;82.10
12632;DHT22;6381;45.748;12.106;2023-09-19T11:51:19;31.30;79.80
12632;DHT22;6381;45.748;12.106;2023-09-19T11:53:52;31.30;74.80
12632;DHT22;6381;45.748;12.106;2023-09-19T11:56:24;30.40;73.20
12632;DHT22;6381;45.748;12.106;2023-09-19T11:58:57;29.60;73.30
12632;DHT22;6381;45.748;12.106;2023-09-19T12:01:30;30.40;75.50
12632;DHT22;6381;45.748;12.106;2023-09-19T12:04:03;31.00;78.00
12632;DHT22;6381;45.748;12.106;2023-09-19T12:06:35;31.50;75.50
12632;DHT22;6381;45.748;12.106;2023-09-19T12:09:13;31.20;74.50
12632;DHT22;6381;45.748;12.106;2023-09-19T12:11:45;31.50;71.50
12632;DHT22;6381;45.748;12.106;2023-09-19T12:14:22;31.70;69.40
12632;DHT22;6381;45.748;12.106;2023-09-19T12:16:54;31.80;71.00
12632;DHT22;6381;45.748;12.106;2023-09-19T12:19:25;31.60;71.80
12632;DHT22;6381;45.748;12.106;2023-09-19T12:22:00;31.70;71.10
12632;DHT22;6381;45.748;12.106;2023-09-19T12:24:33;32.00;69.30
12632;DHT22;6381;45.748;12.106;2023-09-19T12:27:06;31.90;68.30
12632;DHT22;6381;45.748;12.106;2023-09-19T12:29:45;32.50;64.30
12632;DHT22;6381;45.748;12.106;2023-09-19T12:32:17;32.60;65.20
12632;DHT22;6381;45.748;12.106;2023-09-19T12:34:52;31.50;66.70
12632;DHT22;6381;45.748;12.106;2023-09-19T12:37:24;30.10;70.40
12632;DHT22;6381;45.748;12.106;2023-09-19T12:40:05;31.10;67.30
12632;DHT22;6381;45.748;12.106;2023-09-19T12:42:46;32.10;66.00
12632;DHT22;6381;45.748;12.106;2023-09-19T12:45:17;32.90;66.80
12632;DHT22;6381;45.748;12.106;2023-09-19T12:48:20;32.80;65.40
12632;DHT22;6381;45.748;12.106;2023-09-19T12:51:04;32.90;64.10
12632;DHT22;6381;45.748;12.106;2023-09-19T12:53:38;33.20;60.90
12632;DHT22;6381;45.748;12.106;2023-09-19T12:56:13;33.40;61.40
12632;DHT22;6381;45.748;12.106;2023-09-19T12:58:51;33.70;59.80
12632;DHT22;6381;45.748;12.106;2023-09-19T13:01:24;33.10;59.00
12632;DHT22;6381;45.748;12.106;2023-09-19T13:04:13;31.50;58.60
12632;DHT22;6381;45.748;12.106;2023-09-19T13:06:48;30.50;65.80
12632;DHT22;6381;45.748;12.106;2023-09-19T13:09:20;29.80;67.70
12632;DHT22;6381;45.748;12.106;2023-09-19T13:11:50;29.50;71.00
12632;DHT22;6381;45.748;12.106;2023-09-19T13:14:23;29.90;70.90
12632;DHT22;6381;45.748;12.106;2023-09-19T13:16:57;29.60;69.90
12632;DHT22;6381;45.748;12.106;2023-09-19T13:19:41;29.20;73.60
12632;DHT22;6381;45.748;12.106;2023-09-19T13:22:36;28.70;77.30
12632;DHT22;6381;45.748;12.106;2023-09-19T13:25:10;28.50;79.80
12632;DHT22;6381;45.748;12.106;2023-09-19T13:27:43;28.30;82.50
12632;DHT22;6381;45.748;12.106;2023-09-19T13:30:13;28.20;83.90
12632;DHT22;6381;45.748;12.106;2023-09-19T13:32:44;28.10;85.10
12632;DHT22;6381;45.748;12.106;2023-09-19T13:35:15;28.30;86.40
12632;DHT22;6381;45.748;12.106;2023-09-19T13:37:47;28.40;85.90
12632;DHT22;6381;45.748;12.106;2023-09-19T13:40:21;28.40;85.00
12632;DHT22;6381;45.748;12.106;2023-09-19T13:42:51;29.30;76.70
12632;DHT22;6381;45.748;12.106;2023-09-19T13:45:22;30.30;69.80
12632;DHT22;6381;45.748;12.106;2023-09-19T13:47:52;31.90;66.70
12632;DHT22;6381;45.748;12.106;2023-09-19T13:50:23;32.30;61.00
12632;DHT22;6381;45.748;12.106;2023-09-19T13:52:57;32.50;61.80
12632;DHT22;6381;45.748;12.106;2023-09-19T13:55:30;33.10;58.70
12632;DHT22;6381;45.748;12.106;2023-09-19T13:58:00;33.40;56.60
12632;DHT22;6381;45.748;12.106;2023-09-19T14:00:35;32.20;59.30
12632;DHT22;6381;45.748;12.106;2023-09-19T14:03:06;32.30;56.80
12632;DHT22;6381;45.748;12.106;2023-09-19T14:05:37;30.90;61.30
12632;DHT22;6381;45.748;12.106;2023-09-19T14:08:07;30.00;65.50
12632;DHT22;6381;45.748;12.106;2023-09-19T14:10:39;29.60;67.20
12632;DHT22;6381;45.748;12.106;2023-09-19T14:13:08;29.60;71.20
12632;DHT22;6381;45.748;12.106;2023-09-19T14:15:41;29.60;72.50
12632;DHT22;6381;45.748;12.106;2023-09-19T14:18:11;30.20;71.60
12632;DHT22;6381;45.748;12.106;2023-09-19T14:20:41;28.50;81.60
12632;DHT22;6381;45.748;12.106;2023-09-19T14:23:12;27.60;90.30
12632;DHT22;6381;45.748;12.106;2023-09-19T14:25:43;27.10;90.50
12632;DHT22;6381;45.748;12.106;2023-09-19T14:28:13;26.40;90.50
12632;DHT22;6381;45.748;12.106;2023-09-19T14:30:44;26.20;91.60
12632;DHT22;6381;45.748;12.106;2023-09-19T14:33:14;26.00;91.50
12632;DHT22;6381;45.748;12.106;2023-09-19T14:35:44;25.90;91.70
12632;DHT22;6381;45.748;12.106;2023-09-19T14:38:14;25.90;90.40
12632;DHT22;6381;45.748;12.106;2023-09-19T14:40:47;25.70;91.00
12632;DHT22;6381;45.748;12.106;2023-09-19T14:43:18;25.60;90.20
12632;DHT22;6381;45.748;12.106;2023-09-19T14:45:48;26.80;85.00
12632;DHT22;6381;45.748;12.106;2023-09-19T14:48:18;25.80;80.10
12632;DHT22;6381;45.748;12.106;2023-09-19T14:50:47;25.40;82.20
12632;DHT22;6381;45.748;12.106;2023-09-19T14:53:18;25.80;86.90
12632;DHT22;6381;45.748;12.106;2023-09-19T14:55:53;26.50;90.80
12632;DHT22;6381;45.748;12.106;2023-09-19T14:58:24;27.40;90.90
12632;DHT22;6381;45.748;12.106;2023-09-19T15:01:03;27.10;91.70
12632;DHT22;6381;45.748;12.106;2023-09-19T15:03:34;26.00;96.40
12632;DHT22;6381;45.748;12.106;2023-09-19T15:06:06;25.60;99.10
12632;DHT22;6381;45.748;12.106;2023-09-19T15:08:37;25.20;99.90
12632;DHT22;6381;45.748;12.106;2023-09-19T15:11:11;24.90;99.90
12632;DHT22;6381;45.748;12.106;2023-09-19T15:13:42;24.90;99.90
12632;DHT22;6381;45.748;12.106;2023-09-19T15:16:13;24.50;99.90
12632;DHT22;6381;45.748;12.106;2023-09-19T15:18:45;24.50;99.90
12632;DHT22;6381;45.748;12.106;2023-09-19T15:21:17;24.20;99.90
12632;DHT22;6381;45.748;12.106;2023-09-19T15:23:47;23.90;99.90
12632;DHT22;6381;45.748;12.106;2023-09-19T15:26:18;23.80;99.90
12632;DHT22;6381;45.748;12.106;2023-09-19T15:28:50;23.80;99.90
12632;DHT22;6381;45.748;12.106;2023-09-19T15:31:20;23.90;99.90
12632;DHT22;6381;45.748;12.106;2023-09-19T15:33:50;23.90;99.90
12632;DHT22;6381;45.748;12.106;2023-09-19T15:36:19;23.90;99.90
12632;DHT22;6381;45.748;12.106;2023-09-19T15:39:06;23.90;99.90
12632;DHT22;6381;45.748;12.106;2023-09-19T15:41:42;24.20;99.90
12632;DHT22;6381;45.748;12.106;2023-09-19T15:44:17;24.30;99.90
12632;DHT22;6381;45.748;12.106;2023-09-19T15:46:47;24.40;99.90
12632;DHT22;6381;45.748;12.106;2023-09-19T15:49:17;24.60;99.90
12632;DHT22;6381;45.748;12.106;2023-09-19T15:51:48;24.60;99.90
12632;DHT22;6381;45.748;12.106;2023-09-19T15:54:17;24.60;99.90
12632;DHT22;6381;45.748;12.106;2023-09-19T15:56:49;24.50;99.90
12632;DHT22;6381;45.748;12.106;2023-09-19T15:59:19;24.60;99.90
12632;DHT22;6381;45.748;12.106;2023-09-19T16:01:49;24.50;99.90
12632;DHT22;6381;45.748;12.106;2023-09-19T16:04:19;24.50;99.90
12632;DHT22;6381;45.748;12.106;2023-09-19T16:06:49;24.40;99.90
12632;DHT22;6381;45.748;12.106;2023-09-19T16:09:22;24.40;99.90
12632;DHT22;6381;45.748;12.106;2023-09-19T16:11:54;24.10;99.90
12632;DHT22;6381;45.748;12.106;2023-09-19T16:14:24;24.00;99.90